sensor_id;sensor_type;location;lat;lon;timestamp;P1;durP1;ratioP1;P2;durP2;ratioP2
78288;SDS011;67539;48.752;12.922;2023-09-12T00:11:10;124.00;;;89.20;;
78288;SDS011;67539;48.752;12.922;2023-09-12T01:03:14;130.70;;;103.40;;
78288;SDS011;67539;48.752;12.922;2023-09-12T02:25:40;111.75;;;91.30;;
78288;SDS011;67539;48.752;12.922;2023-09-12T02:30:37;124.20;;;106.30;;
78288;SDS011;67539;48.752;12.922;2023-09-12T02:33:06;100.60;;;86.10;;
78288;SDS011;67539;48.752;12.922;2023-09-12T03:20:06;114.20;;;94.00;;
78288;SDS011;67539;48.752;12.922;2023-09-12T03:27:34;104.40;;;89.70;;
78288;SDS011;67539;48.752;12.922;2023-09-12T04:14:52;119.30;;;99.10;;
78288;SDS011;67539;48.752;12.922;2023-09-12T05:41:41;93.40;;;83.35;;
78288;SDS011;67539;48.752;12.922;2023-09-12T05:46:40;90.45;;;74.40;;
78288;SDS011;67539;48.752;12.922;2023-09-12T05:49:08;106.20;;;92.70;;
78288;SDS011;67539;48.752;12.922;2023-09-12T06:33:40;117.30;;;95.00;;
78288;SDS011;67539;48.752;12.922;2023-09-12T07:03:29;98.90;;;73.50;;
78288;SDS011;67539;48.752;12.922;2023-09-12T07:50:42;106.40;;;88.15;;
78288;SDS011;67539;48.752;12.922;2023-09-12T08:52:40;92.50;;;63.30;;
78288;SDS011;67539;48.752;12.922;2023-09-12T11:49:22;101.80;;;54.00;;
78288;SDS011;67539;48.752;12.922;2023-09-12T12:16:46;110.55;;;62.50;;
78288;SDS011;67539;48.752;12.922;2023-09-12T13:34:17;112.20;;;60.80;;
78288;SDS011;67539;48.752;12.922;2023-09-12T13:49:27;115.90;;;61.40;;
78288;SDS011;67539;48.752;12.922;2023-09-12T13:59:20;106.75;;;51.80;;
78288;SDS011;67539;48.752;12.922;2023-09-12T14:01:48;100.80;;;47.80;;
78288;SDS011;67539;48.752;12.922;2023-09-12T14:11:51;92.10;;;43.10;;
78288;SDS011;67539;48.752;12.922;2023-09-12T14:16:49;93.30;;;42.90;;
78288;SDS011;67539;48.752;12.922;2023-09-12T14:29:18;95.60;;;42.00;;
78288;SDS011;67539;48.752;12.922;2023-09-12T14:39:19;97.70;;;47.40;;
78288;SDS011;67539;48.752;12.922;2023-09-12T14:44:18;92.05;;;41.10;;
78288;SDS011;67539;48.752;12.922;2023-09-12T14:54:12;100.60;;;56.30;;
78288;SDS011;67539;48.752;12.922;2023-09-12T14:56:40;104.60;;;51.70;;
78288;SDS011;67539;48.752;12.922;2023-09-12T15:06:33;106.20;;;56.95;;
78288;SDS011;67539;48.752;12.922;2023-09-12T15:13:58;67.65;;;18.98;;
78288;SDS011;67539;48.752;12.922;2023-09-12T15:16:27;6.67;;;5.60;;
78288;SDS011;67539;48.752;12.922;2023-09-12T15:18:57;6.93;;;4.82;;
78288;SDS011;67539;48.752;12.922;2023-09-12T15:21:26;9.93;;;5.45;;
78288;SDS011;67539;48.752;12.922;2023-09-12T15:23:54;5.65;;;5.10;;
78288;SDS011;67539;48.752;12.922;2023-09-12T15:26:23;6.07;;;5.28;;
78288;SDS011;67539;48.752;12.922;2023-09-12T15:28:52;5.85;;;5.22;;
78288;SDS011;67539;48.752;12.922;2023-09-12T15:31:20;6.25;;;5.65;;
78288;SDS011;67539;48.752;12.922;2023-09-12T15:33:49;7.05;;;4.68;;
78288;SDS011;67539;48.752;12.922;2023-09-12T15:36:17;6.93;;;5.00;;
78288;SDS011;67539;48.752;12.922;2023-09-12T15:38:45;7.35;;;5.63;;
78288;SDS011;67539;48.752;12.922;2023-09-12T15:41:13;4.82;;;4.13;;
78288;SDS011;67539;48.752;12.922;2023-09-12T15:43:42;6.40;;;4.95;;
78288;SDS011;67539;48.752;12.922;2023-09-12T15:46:13;6.43;;;4.50;;
78288;SDS011;67539;48.752;12.922;2023-09-12T15:49:01;5.88;;;4.75;;
78288;SDS011;67539;48.752;12.922;2023-09-12T15:51:30;6.97;;;4.82;;
78288;SDS011;67539;48.752;12.922;2023-09-12T15:53:58;5.63;;;5.05;;
78288;SDS011;67539;48.752;12.922;2023-09-12T15:56:27;5.55;;;4.50;;
78288;SDS011;67539;48.752;12.922;2023-09-12T15:58:55;5.25;;;4.03;;
78288;SDS011;67539;48.752;12.922;2023-09-12T16:01:25;5.45;;;4.88;;
78288;SDS011;67539;48.752;12.922;2023-09-12T16:03:54;8.50;;;4.65;;
78288;SDS011;67539;48.752;12.922;2023-09-12T16:06:22;6.55;;;5.53;;
78288;SDS011;67539;48.752;12.922;2023-09-12T16:08:51;7.50;;;4.75;;
78288;SDS011;67539;48.752;12.922;2023-09-12T16:11:20;5.78;;;5.07;;
78288;SDS011;67539;48.752;12.922;2023-09-12T16:13:48;5.95;;;5.30;;
78288;SDS011;67539;48.752;12.922;2023-09-12T16:16:17;7.25;;;5.47;;
78288;SDS011;67539;48.752;12.922;2023-09-12T16:18:47;7.93;;;4.80;;
78288;SDS011;67539;48.752;12.922;2023-09-12T16:21:15;5.28;;;4.43;;
78288;SDS011;67539;48.752;12.922;2023-09-12T16:23:43;6.70;;;5.07;;
78288;SDS011;67539;48.752;12.922;2023-09-12T16:26:11;7.93;;;6.05;;
78288;SDS011;67539;48.752;12.922;2023-09-12T16:28:39;6.05;;;4.90;;
78288;SDS011;67539;48.752;12.922;2023-09-12T16:31:09;5.60;;;4.97;;
78288;SDS011;67539;48.752;12.922;2023-09-12T16:33:37;6.20;;;5.32;;
78288;SDS011;67539;48.752;12.922;2023-09-12T16:36:06;6.03;;;5.35;;
78288;SDS011;67539;48.752;12.922;2023-09-12T16:38:35;6.68;;;5.75;;
78288;SDS011;67539;48.752;12.922;2023-09-12T16:41:03;8.07;;;5.40;;
78288;SDS011;67539;48.752;12.922;2023-09-12T16:43:31;7.22;;;5.95;;
78288;SDS011;67539;48.752;12.922;2023-09-12T16:46:00;7.53;;;5.40;;
78288;SDS011;67539;48.752;12.922;2023-09-12T16:48:28;6.15;;;5.18;;
78288;SDS011;67539;48.752;12.922;2023-09-12T16:50:57;6.28;;;5.47;;
78288;SDS011;67539;48.752;12.922;2023-09-12T16:53:26;6.63;;;5.70;;
78288;SDS011;67539;48.752;12.922;2023-09-12T16:55:54;6.82;;;5.82;;
78288;SDS011;67539;48.752;12.922;2023-09-12T16:58:24;6.18;;;5.28;;
78288;SDS011;67539;48.752;12.922;2023-09-12T17:00:53;6.38;;;5.25;;
78288;SDS011;67539;48.752;12.922;2023-09-12T17:03:21;6.68;;;5.13;;
78288;SDS011;67539;48.752;12.922;2023-09-12T17:05:50;6.25;;;5.43;;
78288;SDS011;67539;48.752;12.922;2023-09-12T17:08:18;7.57;;;5.63;;
78288;SDS011;67539;48.752;12.922;2023-09-12T17:10:47;8.55;;;5.68;;
78288;SDS011;67539;48.752;12.922;2023-09-12T17:13:15;7.53;;;5.93;;
78288;SDS011;67539;48.752;12.922;2023-09-12T17:15:44;10.02;;;6.20;;
78288;SDS011;67539;48.752;12.922;2023-09-12T17:18:12;9.23;;;6.22;;
78288;SDS011;67539;48.752;12.922;2023-09-12T17:20:40;9.55;;;5.90;;
78288;SDS011;67539;48.752;12.922;2023-09-12T17:23:08;8.63;;;5.75;;
78288;SDS011;67539;48.752;12.922;2023-09-12T17:25:37;7.95;;;6.03;;
78288;SDS011;67539;48.752;12.922;2023-09-12T17:28:06;10.40;;;6.07;;
78288;SDS011;67539;48.752;12.922;2023-09-12T17:30:35;9.57;;;6.43;;
78288;SDS011;67539;48.752;12.922;2023-09-12T17:33:03;9.05;;;6.28;;
78288;SDS011;67539;48.752;12.922;2023-09-12T17:35:31;9.13;;;6.22;;
78288;SDS011;67539;48.752;12.922;2023-09-12T17:38:00;11.15;;;6.93;;
78288;SDS011;67539;48.752;12.922;2023-09-12T17:40:28;13.20;;;7.57;;
78288;SDS011;67539;48.752;12.922;2023-09-12T17:42:56;13.13;;;8.23;;
78288;SDS011;67539;48.752;12.922;2023-09-12T17:45:26;9.63;;;8.50;;
78288;SDS011;67539;48.752;12.922;2023-09-12T17:47:55;12.45;;;8.95;;
78288;SDS011;67539;48.752;12.922;2023-09-12T17:50:23;12.68;;;8.45;;
78288;SDS011;67539;48.752;12.922;2023-09-12T17:52:52;11.20;;;8.57;;
78288;SDS011;67539;48.752;12.922;2023-09-12T17:55:20;9.48;;;8.23;;
78288;SDS011;67539;48.752;12.922;2023-09-12T17:57:48;10.45;;;8.43;;
78288;SDS011;67539;48.752;12.922;2023-09-12T18:00:18;10.57;;;8.07;;
78288;SDS011;67539;48.752;12.922;2023-09-12T18:02:54;8.82;;;6.55;;
78288;SDS011;67539;48.752;12.922;2023-09-12T18:05:23;8.02;;;7.22;;
78288;SDS011;67539;48.752;12.922;2023-09-12T18:07:51;8.55;;;6.93;;
78288;SDS011;67539;48.752;12.922;2023-09-12T18:10:19;7.30;;;6.60;;
78288;SDS011;67539;48.752;12.922;2023-09-12T18:12:47;9.10;;;7.50;;
78288;SDS011;67539;48.752;12.922;2023-09-12T18:15:15;8.43;;;7.07;;
78288;SDS011;67539;48.752;12.922;2023-09-12T18:17:43;7.80;;;6.72;;
78288;SDS011;67539;48.752;12.922;2023-09-12T18:20:13;10.13;;;7.32;;
78288;SDS011;67539;48.752;12.922;2023-09-12T18:22:41;9.35;;;6.95;;
78288;SDS011;67539;48.752;12.922;2023-09-12T18:25:10;10.70;;;7.72;;
78288;SDS011;67539;48.752;12.922;2023-09-12T18:27:38;8.80;;;7.78;;
78288;SDS011;67539;48.752;12.922;2023-09-12T18:30:06;9.95;;;7.22;;
78288;SDS011;67539;48.752;12.922;2023-09-12T18:32:36;8.93;;;7.88;;
78288;SDS011;67539;48.752;12.922;2023-09-12T18:35:04;9.07;;;7.82;;
78288;SDS011;67539;48.752;12.922;2023-09-12T18:37:34;11.90;;;7.72;;
78288;SDS011;67539;48.752;12.922;2023-09-12T18:40:03;12.07;;;7.32;;
78288;SDS011;67539;48.752;12.922;2023-09-12T18:42:32;10.60;;;6.93;;
78288;SDS011;67539;48.752;12.922;2023-09-12T18:45:00;10.60;;;7.82;;
78288;SDS011;67539;48.752;12.922;2023-09-12T18:47:29;11.25;;;7.60;;
78288;SDS011;67539;48.752;12.922;2023-09-12T18:49:59;10.65;;;7.47;;
78288;SDS011;67539;48.752;12.922;2023-09-12T18:52:28;8.95;;;7.65;;
78288;SDS011;67539;48.752;12.922;2023-09-12T18:55:15;12.07;;;7.72;;
78288;SDS011;67539;48.752;12.922;2023-09-12T18:57:44;9.20;;;7.72;;
78288;SDS011;67539;48.752;12.922;2023-09-12T19:00:12;11.65;;;7.85;;
78288;SDS011;67539;48.752;12.922;2023-09-12T19:02:42;8.52;;;7.72;;
78288;SDS011;67539;48.752;12.922;2023-09-12T19:05:11;9.30;;;7.72;;
78288;SDS011;67539;48.752;12.922;2023-09-12T19:07:39;9.88;;;7.72;;
78288;SDS011;67539;48.752;12.922;2023-09-12T19:10:07;9.93;;;8.10;;
78288;SDS011;67539;48.752;12.922;2023-09-12T19:12:40;12.07;;;8.27;;
78288;SDS011;67539;48.752;12.922;2023-09-12T19:15:09;10.82;;;7.97;;
78288;SDS011;67539;48.752;12.922;2023-09-12T19:17:38;11.20;;;8.32;;
78288;SDS011;67539;48.752;12.922;2023-09-12T19:20:07;9.30;;;8.02;;
78288;SDS011;67539;48.752;12.922;2023-09-12T19:22:38;10.40;;;8.00;;
78288;SDS011;67539;48.752;12.922;2023-09-12T19:25:06;9.40;;;8.38;;
78288;SDS011;67539;48.752;12.922;2023-09-12T19:27:36;8.93;;;8.05;;
78288;SDS011;67539;48.752;12.922;2023-09-12T19:30:08;11.20;;;8.25;;
78288;SDS011;67539;48.752;12.922;2023-09-12T19:32:38;13.38;;;8.25;;
78288;SDS011;67539;48.752;12.922;2023-09-12T19:35:07;11.63;;;8.18;;
78288;SDS011;67539;48.752;12.922;2023-09-12T19:37:36;9.70;;;8.05;;
78288;SDS011;67539;48.752;12.922;2023-09-12T19:40:08;10.25;;;8.13;;
78288;SDS011;67539;48.752;12.922;2023-09-12T19:42:41;10.68;;;8.07;;
78288;SDS011;67539;48.752;12.922;2023-09-12T19:45:10;8.98;;;7.75;;
78288;SDS011;67539;48.752;12.922;2023-09-12T19:47:38;9.02;;;8.02;;
78288;SDS011;67539;48.752;12.922;2023-09-12T19:50:25;13.88;;;9.10;;
78288;SDS011;67539;48.752;12.922;2023-09-12T19:52:53;10.55;;;8.82;;
78288;SDS011;67539;48.752;12.922;2023-09-12T19:55:22;10.32;;;9.25;;
78288;SDS011;67539;48.752;12.922;2023-09-12T19:57:52;10.50;;;8.93;;
78288;SDS011;67539;48.752;12.922;2023-09-12T20:00:21;10.02;;;8.73;;
78288;SDS011;67539;48.752;12.922;2023-09-12T20:02:49;10.43;;;9.27;;
78288;SDS011;67539;48.752;12.922;2023-09-12T20:05:18;11.60;;;8.95;;
78288;SDS011;67539;48.752;12.922;2023-09-12T20:07:48;11.48;;;9.88;;
78288;SDS011;67539;48.752;12.922;2023-09-12T20:10:17;14.88;;;9.85;;
78288;SDS011;67539;48.752;12.922;2023-09-12T20:12:48;11.88;;;9.05;;
78288;SDS011;67539;48.752;12.922;2023-09-12T20:15:18;12.50;;;9.73;;
78288;SDS011;67539;48.752;12.922;2023-09-12T20:17:48;10.52;;;9.43;;
78288;SDS011;67539;48.752;12.922;2023-09-12T20:20:18;9.73;;;8.65;;
78288;SDS011;67539;48.752;12.922;2023-09-12T20:22:48;11.77;;;9.35;;
78288;SDS011;67539;48.752;12.922;2023-09-12T20:25:16;11.48;;;9.88;;
78288;SDS011;67539;48.752;12.922;2023-09-12T20:27:45;10.38;;;8.48;;
78288;SDS011;67539;48.752;12.922;2023-09-12T20:30:14;10.80;;;9.20;;
78288;SDS011;67539;48.752;12.922;2023-09-12T20:32:42;9.95;;;8.52;;
78288;SDS011;67539;48.752;12.922;2023-09-12T20:35:25;11.90;;;9.77;;
78288;SDS011;67539;48.752;12.922;2023-09-12T20:37:53;9.15;;;8.23;;
78288;SDS011;67539;48.752;12.922;2023-09-12T20:40:23;10.10;;;8.98;;
78288;SDS011;67539;48.752;12.922;2023-09-12T20:42:52;8.77;;;7.63;;
78288;SDS011;67539;48.752;12.922;2023-09-12T20:45:20;8.50;;;7.70;;
78288;SDS011;67539;48.752;12.922;2023-09-12T20:47:48;9.07;;;8.18;;
78288;SDS011;67539;48.752;12.922;2023-09-12T20:50:18;8.75;;;7.90;;
78288;SDS011;67539;48.752;12.922;2023-09-12T20:52:57;10.38;;;9.23;;
78288;SDS011;67539;48.752;12.922;2023-09-12T20:55:29;9.93;;;8.88;;
78288;SDS011;67539;48.752;12.922;2023-09-12T20:58:02;9.00;;;8.10;;
78288;SDS011;67539;48.752;12.922;2023-09-12T21:00:31;12.25;;;9.98;;
78288;SDS011;67539;48.752;12.922;2023-09-12T21:02:59;9.75;;;8.75;;
78288;SDS011;67539;48.752;12.922;2023-09-12T21:05:27;12.23;;;10.18;;
78288;SDS011;67539;48.752;12.922;2023-09-12T21:07:57;13.05;;;11.10;;
78288;SDS011;67539;48.752;12.922;2023-09-12T21:10:25;11.95;;;10.68;;
78288;SDS011;67539;48.752;12.922;2023-09-12T21:12:54;13.30;;;10.77;;
78288;SDS011;67539;48.752;12.922;2023-09-12T21:15:22;13.20;;;11.10;;
78288;SDS011;67539;48.752;12.922;2023-09-12T21:17:52;12.90;;;10.40;;
78288;SDS011;67539;48.752;12.922;2023-09-12T21:20:20;11.77;;;10.57;;
78288;SDS011;67539;48.752;12.922;2023-09-12T21:22:48;12.13;;;10.77;;
78288;SDS011;67539;48.752;12.922;2023-09-12T21:25:18;11.93;;;10.73;;
78288;SDS011;67539;48.752;12.922;2023-09-12T21:27:46;12.05;;;10.85;;
78288;SDS011;67539;48.752;12.922;2023-09-12T21:30:14;11.90;;;10.80;;
78288;SDS011;67539;48.752;12.922;2023-09-12T21:32:42;12.48;;;11.05;;
78288;SDS011;67539;48.752;12.922;2023-09-12T21:35:11;11.77;;;10.60;;
78288;SDS011;67539;48.752;12.922;2023-09-12T21:37:42;12.07;;;10.73;;
78288;SDS011;67539;48.752;12.922;2023-09-12T21:40:11;11.85;;;10.65;;
78288;SDS011;67539;48.752;12.922;2023-09-12T21:42:41;11.85;;;10.50;;
78288;SDS011;67539;48.752;12.922;2023-09-12T21:45:10;12.48;;;11.18;;
78288;SDS011;67539;48.752;12.922;2023-09-12T21:47:40;13.35;;;11.95;;
78288;SDS011;67539;48.752;12.922;2023-09-12T21:50:09;11.93;;;10.73;;
78288;SDS011;67539;48.752;12.922;2023-09-12T21:52:39;14.23;;;12.52;;
78288;SDS011;67539;48.752;12.922;2023-09-12T21:55:08;14.50;;;13.00;;
78288;SDS011;67539;48.752;12.922;2023-09-12T21:57:36;15.27;;;12.80;;
78288;SDS011;67539;48.752;12.922;2023-09-12T22:00:07;15.93;;;13.07;;
78288;SDS011;67539;48.752;12.922;2023-09-12T22:02:49;15.38;;;13.90;;
78288;SDS011;67539;48.752;12.922;2023-09-12T22:05:18;15.52;;;14.00;;
78288;SDS011;67539;48.752;12.922;2023-09-12T22:07:46;15.85;;;14.25;;
78288;SDS011;67539;48.752;12.922;2023-09-12T22:10:15;16.83;;;15.13;;
78288;SDS011;67539;48.752;12.922;2023-09-12T22:12:43;17.50;;;15.70;;
78288;SDS011;67539;48.752;12.922;2023-09-12T22:15:13;18.05;;;15.32;;
78288;SDS011;67539;48.752;12.922;2023-09-12T22:17:43;17.20;;;15.43;;
78288;SDS011;67539;48.752;12.922;2023-09-12T22:20:12;17.30;;;15.52;;
78288;SDS011;67539;48.752;12.922;2023-09-12T22:22:43;17.95;;;16.15;;
78288;SDS011;67539;48.752;12.922;2023-09-12T22:25:12;18.00;;;16.23;;
78288;SDS011;67539;48.752;12.922;2023-09-12T22:27:41;19.35;;;16.20;;
78288;SDS011;67539;48.752;12.922;2023-09-12T22:30:10;16.65;;;14.95;;
78288;SDS011;67539;48.752;12.922;2023-09-12T22:32:40;18.17;;;16.23;;
78288;SDS011;67539;48.752;12.922;2023-09-12T22:35:09;16.38;;;14.68;;
78288;SDS011;67539;48.752;12.922;2023-09-12T22:37:37;17.67;;;15.85;;
78288;SDS011;67539;48.752;12.922;2023-09-12T22:40:06;18.00;;;16.05;;
78288;SDS011;67539;48.752;12.922;2023-09-12T22:42:36;18.40;;;16.45;;
78288;SDS011;67539;48.752;12.922;2023-09-12T22:45:06;17.50;;;15.77;;
78288;SDS011;67539;48.752;12.922;2023-09-12T22:47:36;17.50;;;15.77;;
78288;SDS011;67539;48.752;12.922;2023-09-12T22:50:08;17.90;;;16.10;;
78288;SDS011;67539;48.752;12.922;2023-09-12T22:52:37;17.67;;;15.82;;
78288;SDS011;67539;48.752;12.922;2023-09-12T22:55:06;17.90;;;16.05;;
78288;SDS011;67539;48.752;12.922;2023-09-12T22:57:35;18.15;;;16.27;;
78288;SDS011;67539;48.752;12.922;2023-09-12T23:00:04;17.48;;;15.73;;
78288;SDS011;67539;48.752;12.922;2023-09-12T23:02:35;17.35;;;15.50;;
78288;SDS011;67539;48.752;12.922;2023-09-12T23:05:05;17.08;;;15.25;;
78288;SDS011;67539;48.752;12.922;2023-09-12T23:07:35;16.92;;;15.30;;
78288;SDS011;67539;48.752;12.922;2023-09-12T23:10:03;16.83;;;15.02;;
78288;SDS011;67539;48.752;12.922;2023-09-12T23:12:32;16.73;;;15.00;;
78288;SDS011;67539;48.752;12.922;2023-09-12T23:15:01;17.63;;;15.82;;
78288;SDS011;67539;48.752;12.922;2023-09-12T23:17:31;17.55;;;15.88;;
78288;SDS011;67539;48.752;12.922;2023-09-12T23:20:00;18.33;;;16.52;;
78288;SDS011;67539;48.752;12.922;2023-09-12T23:22:32;19.08;;;17.10;;
78288;SDS011;67539;48.752;12.922;2023-09-12T23:25:02;17.75;;;16.00;;
78288;SDS011;67539;48.752;12.922;2023-09-12T23:27:35;18.48;;;16.63;;
78288;SDS011;67539;48.752;12.922;2023-09-12T23:30:04;18.05;;;16.23;;
78288;SDS011;67539;48.752;12.922;2023-09-12T23:32:33;20.20;;;17.83;;
78288;SDS011;67539;48.752;12.922;2023-09-12T23:35:02;17.35;;;15.30;;
78288;SDS011;67539;48.752;12.922;2023-09-12T23:37:31;19.67;;;17.67;;
78288;SDS011;67539;48.752;12.922;2023-09-12T23:39:59;17.65;;;16.02;;
78288;SDS011;67539;48.752;12.922;2023-09-12T23:42:32;19.23;;;17.20;;
78288;SDS011;67539;48.752;12.922;2023-09-12T23:45:01;18.98;;;16.95;;
78288;SDS011;67539;48.752;12.922;2023-09-12T23:47:30;18.00;;;16.23;;
78288;SDS011;67539;48.752;12.922;2023-09-12T23:49:58;16.55;;;14.77;;
78288;SDS011;67539;48.752;12.922;2023-09-12T23:52:27;18.58;;;16.75;;
78288;SDS011;67539;48.752;12.922;2023-09-12T23:54:55;18.48;;;16.67;;
78288;SDS011;67539;48.752;12.922;2023-09-12T23:57:26;18.02;;;16.17;;
78288;SDS011;67539;48.752;12.922;2023-09-12T23:59:54;18.25;;;16.40;;
